Time;durP1;ratioP1;P1;durP2;ratioP2;P2;SDS_P1;SDS_P2;PMS_P1;PMS_P2;Temp;Humidity;BMP_temperature;BMP_pressure;BME280_temperature;BME280_humidity;BME280_pressure;Samples;Min_cycle;Max_cycle;Signal;HPM_P1;HPM_P2
2023/09/24 00:01:22;;;;;;;6.60;4.00;;;;;;;26.11;44.22;100682.09;103041;1295;62214;-82
2023/09/24 00:03:49;;;;;;;7.80;4.70;;;;;;;26.12;44.21;100681.52;103018;1297;62212;-82
2023/09/24 00:06:16;;;;;;;6.70;4.00;;;;;;;26.11;44.22;100678.02;102935;1294;62217;-82
2023/09/24 00:08:41;;;;;;;6.90;3.90;;;;;;;26.11;44.33;100673.29;102973;1292;62534;-82
2023/09/24 00:11:08;;;;;;;6.50;4.10;;;;;;;26.11;44.15;100670.42;102863;1294;62907;-82
2023/09/24 00:13:34;;;;;;;6.50;3.90;;;;;;;26.11;44.30;100672.01;103036;1292;62062;-82
2023/09/24 00:16:04;;;;;;;6.10;3.70;;;;;;;26.11;44.18;100672.76;102926;1297;63368;-82
2023/09/24 00:18:30;;;;;;;7.10;4.20;;;;;;;26.11;44.22;100677.45;102736;1299;62191;-82
2023/09/24 00:20:55;;;;;;;7.00;3.80;;;;;;;26.11;44.32;100678.73;102715;1300;62158;-82
2023/09/24 00:23:21;;;;;;;7.40;4.20;;;;;;;26.11;44.26;100679.08;102785;1299;63428;-82
2023/09/24 00:25:49;;;;;;;6.70;3.80;;;;;;;26.10;44.15;100679.52;102717;1298;62391;-82
2023/09/24 00:28:16;;;;;;;6.20;3.70;;;;;;;26.11;44.22;100683.27;102574;1297;62329;-82
2023/09/24 00:30:43;;;;;;;7.90;4.20;;;;;;;26.10;44.35;100685.81;102711;1304;62209;-82
2023/09/24 00:33:09;;;;;;;5.30;3.70;;;;;;;26.10;44.27;100689.08;102686;1300;63440;-82
2023/09/24 00:35:35;;;;;;;5.80;3.70;;;;;;;26.10;44.39;100688.20;102636;1300;62416;-82
2023/09/24 00:38:02;;;;;;;7.50;4.10;;;;;;;26.10;44.39;100689.11;102694;1296;62555;-82
2023/09/24 00:40:27;;;;;;;7.60;3.90;;;;;;;26.10;44.34;100686.89;102818;1295;63306;-82
2023/09/24 00:42:53;;;;;;;6.50;4.00;;;;;;;26.10;44.41;100687.80;102666;1300;62412;-82
2023/09/24 00:45:22;;;;;;;6.00;3.90;;;;;;;26.10;44.47;100684.55;102618;1301;62091;-82
2023/09/24 00:47:48;;;;;;;7.50;3.80;;;;;;;26.10;44.47;100681.71;102860;1296;62272;-82
2023/09/24 00:50:14;;;;;;;6.60;3.80;;;;;;;26.09;44.38;100679.23;102682;1301;62222;-81
2023/09/24 00:52:40;;;;;;;7.20;3.90;;;;;;;26.10;44.43;100672.31;102379;1300;62250;-82
2023/09/24 00:55:08;;;;;;;5.70;3.90;;;;;;;26.09;44.48;100672.52;102301;1296;63482;-81
2023/09/24 00:57:34;;;;;;;6.30;3.70;;;;;;;26.10;44.30;100674.85;102667;1293;62134;-80
2023/09/24 01:00:08;;;;;;;5.40;3.70;;;;;;;26.09;44.53;100675.08;102642;1298;62179;-81
2023/09/24 01:02:34;;;;;;;6.40;3.60;;;;;;;26.09;44.55;100680.70;102687;1297;66425;-81
2023/09/24 01:05:00;;;;;;;5.70;3.90;;;;;;;26.09;44.35;100685.72;102735;1297;62285;-79
2023/09/24 01:07:28;;;;;;;4.50;3.50;;;;;;;26.09;44.69;100689.19;102739;1292;63350;-79
2023/09/24 01:09:53;;;;;;;4.60;3.30;;;;;;;26.08;44.33;100690.14;102697;1294;62184;-81
2023/09/24 01:12:21;;;;;;;7.00;3.60;;;;;;;26.09;44.53;100694.77;102715;1293;62212;-81
2023/09/24 01:14:48;;;;;;;7.40;3.50;;;;;;;26.09;44.58;100698.04;102665;1297;62196;-81
2023/09/24 01:17:15;;;;;;;5.90;3.70;;;;;;;26.09;44.57;100702.72;102673;1297;62227;-81
2023/09/24 01:19:40;;;;;;;7.90;3.80;;;;;;;26.08;44.71;100704.52;102668;1292;64037;-82
2023/09/24 01:22:07;;;;;;;5.30;3.40;;;;;;;26.08;44.68;100704.73;102744;1297;62212;-79
2023/09/24 01:24:32;;;;;;;6.90;3.50;;;;;;;26.08;44.62;100705.67;102706;1294;62288;-80
2023/09/24 01:26:59;;;;;;;8.90;3.90;;;;;;;26.08;44.60;100703.52;102700;1297;63289;-80
2023/09/24 01:29:26;;;;;;;5.40;3.50;;;;;;;26.08;44.66;100705.14;102604;1297;62663;-81
2023/09/24 01:31:52;;;;;;;8.00;3.90;;;;;;;26.08;44.83;100706.39;102698;1297;62280;-80
2023/09/24 01:34:19;;;;;;;4.80;3.40;;;;;;;26.08;44.67;100705.72;102712;1297;63294;-81
2023/09/24 01:36:45;;;;;;;6.10;3.90;;;;;;;26.07;44.68;100701.95;102620;1298;62176;-80
2023/09/24 01:39:15;;;;;;;5.20;3.20;;;;;;;26.07;44.72;100697.09;102690;1297;62634;-80
2023/09/24 01:41:41;;;;;;;6.00;3.80;;;;;;;26.07;44.78;100694.00;102598;1298;77102;-80
2023/09/24 01:44:07;;;;;;;6.30;3.60;;;;;;;26.07;44.72;100694.04;102711;1297;63422;-81
2023/09/24 01:46:33;;;;;;;6.30;3.80;;;;;;;26.07;45.06;100692.95;102628;1292;62286;-80
2023/09/24 01:48:59;;;;;;;5.10;3.70;;;;;;;26.07;45.08;100690.59;102687;1298;62223;-80
2023/09/24 01:51:25;;;;;;;6.10;4.00;;;;;;;26.06;45.01;100692.48;102663;1297;62273;-80
2023/09/24 01:53:51;;;;;;;5.90;3.30;;;;;;;26.06;44.99;100694.66;102652;1292;62481;-80
2023/09/24 01:56:21;;;;;;;5.20;3.80;;;;;;;26.06;44.82;100689.96;102727;1297;63126;-81
2023/09/24 01:58:46;;;;;;;5.80;3.30;;;;;;;26.06;45.06;100685.64;102680;1293;62290;-81
2023/09/24 02:01:12;;;;;;;5.40;3.40;;;;;;;26.06;44.84;100683.48;102608;1297;62280;-81
2023/09/24 02:03:38;;;;;;;5.20;3.50;;;;;;;26.06;45.01;100685.81;102734;1295;62266;-81
2023/09/24 02:06:06;;;;;;;5.20;3.30;;;;;;;26.06;45.07;100682.99;102693;1297;62235;-81
2023/09/24 02:08:32;;;;;;;5.10;3.50;;;;;;;26.05;45.02;100681.90;102671;1297;62205;-81
2023/09/24 02:11:01;;;;;;;6.00;3.50;;;;;;;26.06;44.94;100681.17;102674;1299;63427;-81
2023/09/24 02:13:27;;;;;;;6.50;3.50;;;;;;;26.06;45.10;100677.41;102635;1297;66597;-81
2023/09/24 02:15:53;;;;;;;5.30;3.40;;;;;;;26.06;45.13;100675.41;102718;1297;63308;-81
2023/09/24 02:18:19;;;;;;;7.20;3.80;;;;;;;26.05;45.08;100675.81;102723;1297;62116;-80
2023/09/24 02:20:48;;;;;;;4.80;3.40;;;;;;;26.06;45.21;100678.12;102589;1300;62198;-81
2023/09/24 02:23:14;;;;;;;6.10;3.70;;;;;;;26.05;45.13;100687.15;102669;1296;67565;-81
2023/09/24 02:25:39;;;;;;;5.80;3.60;;;;;;;26.05;45.17;100688.63;102695;1295;62442;-79
2023/09/24 02:28:05;;;;;;;4.90;3.30;;;;;;;26.05;45.30;100682.71;102638;1294;62258;-81
2023/09/24 02:30:32;;;;;;;4.30;3.00;;;;;;;26.04;45.37;100681.99;102671;1298;62471;-81
2023/09/24 02:32:59;;;;;;;5.80;3.20;;;;;;;26.05;45.26;100680.20;102650;1292;62091;-81
2023/09/24 02:35:25;;;;;;;5.40;3.20;;;;;;;26.05;45.31;100680.01;102861;1297;62499;-81
2023/09/24 02:37:53;;;;;;;6.00;3.20;;;;;;;26.05;45.21;100685.18;102960;1293;63427;-81
2023/09/24 02:40:30;;;;;;;6.00;3.30;;;;;;;26.05;45.32;100685.02;103129;1298;62356;-81
2023/09/24 02:43:01;;;;;;;5.50;3.20;;;;;;;26.05;45.54;100685.62;102818;1294;66666;-81
2023/09/24 02:45:31;;;;;;;5.50;3.70;;;;;;;26.05;45.36;100685.24;102865;1297;62118;-81
2023/09/24 02:47:57;;;;;;;5.40;3.50;;;;;;;26.05;45.40;100681.59;102907;1294;62058;-81
2023/09/24 02:50:24;;;;;;;4.50;3.20;;;;;;;26.05;45.34;100673.14;102934;1297;63061;-81
2023/09/24 02:52:52;;;;;;;5.10;3.40;;;;;;;26.06;45.30;100668.36;102759;1298;62210;-81
2023/09/24 02:55:17;;;;;;;7.50;3.60;;;;;;;26.06;45.58;100664.60;102686;1297;62198;-81
2023/09/24 02:57:46;;;;;;;6.60;3.80;;;;;;;26.06;45.60;100665.52;102678;1297;62166;-81
2023/09/24 03:00:26;;;;;;;6.10;3.50;;;;;;;26.05;45.63;100664.26;102692;1296;64985;-81
2023/09/24 03:02:57;;;;;;;6.40;3.70;;;;;;;26.05;45.67;100663.55;102669;1292;66624;-81
2023/09/24 03:05:31;;;;;;;5.20;3.30;;;;;;;26.05;45.61;100660.52;101609;1298;1469540;-81
2023/09/24 03:08:05;;;;;;;6.90;3.70;;;;;;;26.05;45.67;100665.23;102571;1296;62187;-81
2023/09/24 03:10:32;;;;;;;5.20;3.30;;;;;;;26.05;45.62;100664.69;102625;1293;63918;-81
2023/09/24 03:12:58;;;;;;;7.10;3.40;;;;;;;26.05;45.57;100667.73;102563;1297;66864;-80
2023/09/24 03:15:23;;;;;;;6.00;3.20;;;;;;;26.05;45.67;100672.07;102650;1297;62273;-80
2023/09/24 03:17:50;;;;;;;5.20;3.40;;;;;;;26.05;45.67;100667.39;102683;1294;63392;-81
2023/09/24 03:20:27;;;;;;;6.80;3.60;;;;;;;26.04;45.77;100665.08;102585;1297;64875;-79
2023/09/24 03:23:01;;;;;;;4.70;3.40;;;;;;;26.04;45.72;100665.80;102581;1297;66489;-81
2023/09/24 03:25:27;;;;;;;5.70;3.30;;;;;;;26.04;45.54;100665.29;102702;1294;62157;-81
2023/09/24 03:27:54;;;;;;;5.50;3.30;;;;;;;26.04;45.70;100674.10;102713;1297;62157;-80
2023/09/24 03:30:20;;;;;;;4.90;3.10;;;;;;;26.04;45.91;100676.27;102647;1295;64177;-79
2023/09/24 03:32:47;;;;;;;6.80;3.70;;;;;;;26.04;45.79;100684.73;102654;1297;62200;-80
2023/09/24 03:35:13;;;;;;;5.00;3.40;;;;;;;26.04;45.83;100683.84;102752;1297;63301;-79
2023/09/24 03:37:40;;;;;;;5.80;3.30;;;;;;;26.04;45.74;100682.96;102706;1297;63376;-80
2023/09/24 03:40:12;;;;;;;7.80;3.70;;;;;;;26.04;45.82;100679.58;102568;1298;63903;-81
2023/09/24 03:42:38;;;;;;;6.40;3.50;;;;;;;26.04;45.92;100679.18;102580;1298;66751;-81
2023/09/24 03:45:09;;;;;;;5.20;3.50;;;;;;;26.04;45.89;100682.42;102654;1297;62284;-81
2023/09/24 03:47:36;;;;;;;5.90;3.70;;;;;;;26.04;45.85;100679.57;102770;1296;62659;-81
2023/09/24 03:50:04;;;;;;;4.80;3.40;;;;;;;26.03;45.86;100677.98;102734;1297;64111;-81
2023/09/24 03:52:30;;;;;;;5.00;3.40;;;;;;;26.03;45.88;100676.20;102661;1292;66380;-81
2023/09/24 03:54:57;;;;;;;5.40;3.40;;;;;;;26.03;45.93;100675.27;102714;1293;62189;-82
2023/09/24 03:57:27;;;;;;;5.60;3.20;;;;;;;26.03;46.04;100676.89;102758;1294;62126;-81
2023/09/24 03:59:56;;;;;;;4.80;3.20;;;;;;;26.03;45.92;100670.96;102699;1296;64545;-81
2023/09/24 04:02:22;;;;;;;5.10;3.50;;;;;;;26.03;46.00;100667.22;102659;1297;66568;-81
2023/09/24 04:04:48;;;;;;;5.70;3.50;;;;;;;26.03;45.98;100663.60;102679;1292;62357;-81
2023/09/24 04:07:18;;;;;;;5.90;3.80;;;;;;;26.03;46.15;100664.82;102639;1297;62204;-81
2023/09/24 04:09:44;;;;;;;5.50;3.60;;;;;;;26.03;46.13;100672.07;102653;1295;63857;-81
2023/09/24 04:12:09;;;;;;;5.60;3.80;;;;;;;26.03;46.24;100674.39;102673;1297;62187;-81
2023/09/24 04:14:39;;;;;;;6.50;3.50;;;;;;;26.03;46.30;100681.28;102626;1294;63343;-81
2023/09/24 04:17:05;;;;;;;5.70;3.80;;;;;;;26.03;46.21;100683.45;102737;1297;62116;-81
2023/09/24 04:19:31;;;;;;;7.40;3.70;;;;;;;26.03;46.15;100680.73;102693;1293;64065;-81
2023/09/24 04:21:57;;;;;;;6.20;3.60;;;;;;;26.03;46.32;100682.56;102554;1295;63266;-81
2023/09/24 04:24:23;;;;;;;5.50;3.70;;;;;;;26.03;46.33;100681.83;102742;1293;62117;-82
2023/09/24 04:26:51;;;;;;;4.80;3.50;;;;;;;26.03;46.29;100683.77;102701;1294;62320;-81
2023/09/24 04:29:17;;;;;;;4.80;3.30;;;;;;;26.03;46.28;100692.09;102747;1292;62133;-80
2023/09/24 04:31:43;;;;;;;4.90;3.40;;;;;;;26.03;46.33;100697.13;102684;1293;63482;-81
2023/09/24 04:34:09;;;;;;;6.20;3.40;;;;;;;26.03;46.30;100696.38;102680;1293;62144;-81
2023/09/24 04:36:35;;;;;;;5.30;3.40;;;;;;;26.03;46.38;100695.70;102739;1297;62204;-81
2023/09/24 04:39:03;;;;;;;5.60;3.70;;;;;;;26.03;46.32;100697.46;102697;1295;62214;-80
2023/09/24 04:41:29;;;;;;;4.70;3.00;;;;;;;26.03;46.44;100696.38;102712;1295;63574;-82
2023/09/24 04:43:54;;;;;;;5.00;3.40;;;;;;;26.04;46.37;100698.84;102664;1297;62260;-81
2023/09/24 04:46:20;;;;;;;6.20;3.60;;;;;;;26.04;46.32;100701.75;102716;1297;63410;-81
2023/09/24 04:48:45;;;;;;;5.80;3.60;;;;;;;26.03;46.42;100710.61;102705;1293;63367;-81
2023/09/24 04:51:11;;;;;;;5.40;3.30;;;;;;;26.03;46.29;100710.41;102638;1296;63938;-81
2023/09/24 04:53:38;;;;;;;6.70;3.50;;;;;;;26.04;46.31;100717.40;102664;1297;63516;-81
2023/09/24 04:56:07;;;;;;;6.00;3.50;;;;;;;26.03;46.35;100718.89;102648;1293;63398;-81
2023/09/24 04:58:34;;;;;;;6.90;3.70;;;;;;;26.04;46.48;100722.09;102651;1298;62493;-81
2023/09/24 05:01:04;;;;;;;5.50;3.50;;;;;;;26.04;46.48;100723.34;102550;1295;63982;-81
2023/09/24 05:03:31;;;;;;;6.10;3.60;;;;;;;26.04;46.55;100727.50;102679;1293;67573;-81
2023/09/24 05:05:57;;;;;;;5.70;3.50;;;;;;;26.04;46.55;100731.09;102559;1293;62169;-80
2023/09/24 05:08:22;;;;;;;5.20;3.50;;;;;;;26.04;46.59;100730.90;102677;1293;62291;-81
2023/09/24 05:10:49;;;;;;;5.60;3.70;;;;;;;26.05;46.53;100727.63;102768;1294;63164;-81
2023/09/24 05:13:16;;;;;;;4.70;3.50;;;;;;;26.04;46.54;100724.96;102736;1296;62330;-81
2023/09/24 05:15:54;;;;;;;5.10;3.50;;;;;;;26.05;46.56;100722.73;102651;1293;62180;-81
2023/09/24 05:18:29;;;;;;;6.40;3.80;;;;;;;26.04;46.30;100726.22;102771;1297;62313;-81
2023/09/24 05:20:55;;;;;;;4.70;3.50;;;;;;;26.04;46.45;100724.05;102560;1294;64758;-80
2023/09/24 05:23:21;;;;;;;5.40;3.40;;;;;;;26.05;46.35;100724.73;102666;1293;62215;-81
2023/09/24 05:25:47;;;;;;;6.20;3.60;;;;;;;26.05;46.41;100727.59;102691;1297;62183;-80
2023/09/24 05:28:14;;;;;;;5.00;3.50;;;;;;;26.05;46.70;100739.30;102687;1292;62818;-81
2023/09/24 05:30:39;;;;;;;5.50;3.60;;;;;;;26.05;46.62;100744.32;102637;1295;63400;-81
2023/09/24 05:33:07;;;;;;;5.80;3.60;;;;;;;26.05;46.50;100743.23;102669;1295;62107;-79
2023/09/24 05:35:32;;;;;;;5.00;3.40;;;;;;;26.06;46.62;100742.13;102676;1296;62159;-80
2023/09/24 05:37:58;;;;;;;4.90;3.30;;;;;;;26.06;46.45;100745.02;102727;1294;69729;-81
2023/09/24 05:40:24;;;;;;;5.30;3.60;;;;;;;26.06;46.59;100743.89;102725;1297;62145;-81
2023/09/24 05:42:50;;;;;;;6.10;3.80;;;;;;;26.06;46.36;100742.83;102662;1296;63522;-81
2023/09/24 05:45:15;;;;;;;5.20;3.70;;;;;;;26.06;46.61;100742.41;102779;1295;62875;-81
2023/09/24 05:47:41;;;;;;;5.10;3.50;;;;;;;26.07;46.51;100743.67;102704;1294;62201;-81
2023/09/24 05:50:07;;;;;;;4.80;3.50;;;;;;;26.07;46.74;100745.28;102656;1297;62150;-81
2023/09/24 05:52:34;;;;;;;7.10;3.70;;;;;;;26.06;46.41;100745.48;102656;1293;62078;-81
2023/09/24 05:54:59;;;;;;;5.70;3.80;;;;;;;26.07;46.56;100746.00;102672;1295;62216;-81
2023/09/24 05:57:28;;;;;;;5.20;3.50;;;;;;;26.07;46.59;100748.54;102601;1294;62824;-81
2023/09/24 05:59:54;;;;;;;6.80;3.60;;;;;;;26.07;46.53;100747.77;102541;1297;62075;-81
2023/09/24 06:02:24;;;;;;;5.30;3.70;;;;;;;26.07;46.83;100748.89;102517;1295;63338;-82
2023/09/24 06:04:50;;;;;;;6.10;3.90;;;;;;;26.06;46.63;100747.49;102677;1294;66650;-81
2023/09/24 06:07:16;;;;;;;6.20;3.60;;;;;;;26.07;46.69;100746.35;102568;1299;62311;-80
2023/09/24 06:09:41;;;;;;;6.10;3.90;;;;;;;26.07;46.66;100751.90;102534;1294;63266;-81
2023/09/24 06:12:07;;;;;;;6.20;3.70;;;;;;;26.08;46.75;100759.80;102521;1294;63291;-81
2023/09/24 06:14:33;;;;;;;5.60;3.90;;;;;;;26.08;46.73;100759.41;102595;1295;62393;-81
2023/09/24 06:17:00;;;;;;;5.90;3.70;;;;;;;26.08;46.81;100758.53;102482;1300;62215;-81
2023/09/24 06:19:26;;;;;;;7.80;4.00;;;;;;;26.08;46.62;100760.30;102531;1295;62244;-81
2023/09/24 06:21:51;;;;;;;5.70;3.70;;;;;;;26.08;46.78;100762.83;102647;1297;62212;-81
2023/09/24 06:24:19;;;;;;;5.60;3.50;;;;;;;26.08;46.83;100769.46;102497;1294;62294;-80
2023/09/24 06:26:45;;;;;;;5.30;3.50;;;;;;;26.08;46.79;100771.26;102566;1299;66672;-80
2023/09/24 06:29:11;;;;;;;5.00;3.40;;;;;;;26.09;46.74;100771.42;102595;1295;62457;-81
2023/09/24 06:31:38;;;;;;;5.30;3.50;;;;;;;26.09;46.83;100777.34;102699;1295;62176;-81
2023/09/24 06:34:03;;;;;;;5.80;3.60;;;;;;;26.09;46.79;100777.48;102619;1297;62271;-81
2023/09/24 06:36:29;;;;;;;5.40;3.50;;;;;;;26.09;46.88;100778.92;102712;1293;62265;-82
2023/09/24 06:38:56;;;;;;;5.50;3.60;;;;;;;26.11;47.00;100775.75;102721;1297;62387;-81
2023/09/24 06:41:22;;;;;;;4.60;3.50;;;;;;;26.10;47.00;100772.72;102694;1294;62123;-81
2023/09/24 06:43:48;;;;;;;5.30;3.70;;;;;;;26.11;47.10;100774.98;102708;1297;62136;-80
2023/09/24 06:46:13;;;;;;;6.60;3.60;;;;;;;26.12;47.12;100783.61;102745;1295;62226;-81
2023/09/24 06:48:39;;;;;;;4.60;3.50;;;;;;;26.12;47.15;100787.71;102645;1297;66577;-82
2023/09/24 06:51:11;;;;;;;5.00;4.00;;;;;;;26.14;47.15;100794.43;102650;1294;62252;-81
2023/09/24 06:53:37;;;;;;;7.70;3.70;;;;;;;26.15;47.27;100799.21;102393;1300;62214;-81
2023/09/24 06:56:05;;;;;;;7.00;3.60;;;;;;;26.15;47.23;100799.16;102345;1299;62199;-81
2023/09/24 06:58:56;;;;;;;5.30;3.70;;;;;;;26.16;47.25;100801.98;102295;1301;67936;-82
2023/09/24 07:01:22;;;;;;;7.10;4.00;;;;;;;26.16;47.13;100808.10;102067;1300;62282;-81
2023/09/24 07:03:48;;;;;;;6.30;3.70;;;;;;;26.17;47.13;100809.48;101966;1306;62233;-81
2023/09/24 07:06:15;;;;;;;5.10;3.70;;;;;;;26.18;47.26;100812.06;101952;1301;62226;-81
2023/09/24 07:08:41;;;;;;;5.30;3.60;;;;;;;26.18;47.16;100814.95;102035;1300;62295;-81
2023/09/24 07:11:28;;;;;;;6.00;3.60;;;;;;;26.19;47.21;100815.42;102052;1300;62216;-81
2023/09/24 07:13:55;;;;;;;5.10;3.60;;;;;;;26.19;47.24;100812.54;102068;1300;62173;-82
2023/09/24 07:16:24;;;;;;;6.30;3.50;;;;;;;26.19;47.23;100814.09;102097;1300;62328;-81
2023/09/24 07:18:53;;;;;;;7.90;3.80;;;;;;;26.20;47.28;100813.99;101943;1305;66903;-81
2023/09/24 07:21:24;;;;;;;5.30;3.70;;;;;;;26.20;47.49;100812.37;101925;1308;62267;-82
2023/09/24 07:23:51;;;;;;;4.60;3.60;;;;;;;26.20;47.39;100810.17;101952;1300;62554;-81
2023/09/24 07:26:17;;;;;;;6.80;3.70;;;;;;;26.22;47.44;100806.31;102201;1302;64874;-81
2023/09/24 07:28:43;;;;;;;6.00;3.70;;;;;;;26.22;47.46;100806.97;102226;1298;63380;-81
2023/09/24 07:31:21;;;;;;;5.50;3.60;;;;;;;26.22;47.66;100808.55;102254;1301;62409;-81
2023/09/24 07:33:47;;;;;;;5.50;3.60;;;;;;;26.22;47.64;100797.77;102323;1302;62132;-81
2023/09/24 07:36:13;;;;;;;6.10;3.80;;;;;;;26.24;47.59;100803.94;102193;1302;62213;-81
2023/09/24 07:38:40;;;;;;;5.30;3.60;;;;;;;26.24;47.62;100798.50;102356;1298;62250;-80
2023/09/24 07:41:07;;;;;;;6.30;3.70;;;;;;;26.24;47.54;100796.31;102698;1296;62203;-81
2023/09/24 07:43:37;;;;;;;6.20;4.10;;;;;;;26.24;47.55;100792.17;102696;1296;62102;-82
2023/09/24 07:46:03;;;;;;;6.80;3.90;;;;;;;26.24;47.67;100792.86;102651;1292;65275;-81
2023/09/24 07:48:29;;;;;;;6.60;3.90;;;;;;;26.25;47.65;100793.21;102548;1292;67851;-81
2023/09/24 07:50:56;;;;;;;5.70;3.70;;;;;;;26.25;47.71;100798.02;102675;1294;62185;-81
2023/09/24 07:53:22;;;;;;;6.30;3.70;;;;;;;26.25;47.59;100801.06;102658;1294;62309;-81
2023/09/24 07:55:56;;;;;;;6.50;3.70;;;;;;;26.27;47.59;100808.21;102658;1297;62529;-81
2023/09/24 07:58:24;;;;;;;5.50;3.40;;;;;;;26.26;47.75;100817.44;102683;1295;66423;-81
2023/09/24 08:00:51;;;;;;;5.30;3.70;;;;;;;26.27;47.86;100820.45;102668;1293;62237;-81
2023/09/24 08:03:17;;;;;;;5.10;3.30;;;;;;;26.27;47.85;100822.60;102674;1295;62214;-81
2023/09/24 08:05:42;;;;;;;5.60;3.60;;;;;;;26.27;47.75;100819.86;102665;1297;64008;-82
2023/09/24 08:08:08;;;;;;;5.30;3.80;;;;;;;26.27;47.74;100824.55;102675;1294;63369;-81
2023/09/24 08:10:34;;;;;;;5.30;3.80;;;;;;;26.27;47.79;100822.73;102696;1294;62616;-81
2023/09/24 08:13:02;;;;;;;5.50;3.90;;;;;;;26.28;47.80;100819.10;102657;1297;62209;-81
2023/09/24 08:15:28;;;;;;;4.50;3.50;;;;;;;26.28;47.80;100817.09;102678;1295;62277;-81
2023/09/24 08:17:53;;;;;;;5.70;3.70;;;;;;;26.28;47.78;100816.56;102618;1297;62374;-81
2023/09/24 08:20:19;;;;;;;5.20;3.80;;;;;;;26.28;47.80;100816.02;102703;1294;62304;-79
2023/09/24 08:22:44;;;;;;;4.50;3.70;;;;;;;26.28;47.73;100808.81;102744;1295;62284;-80
2023/09/24 08:25:10;;;;;;;5.90;3.70;;;;;;;26.29;47.94;100803.34;102682;1293;62196;-81
2023/09/24 08:27:36;;;;;;;4.80;3.80;;;;;;;26.28;47.73;100801.38;102610;1297;62272;-80
2023/09/24 08:30:02;;;;;;;5.80;3.90;;;;;;;26.29;47.65;100797.92;102595;1295;62262;-81
2023/09/24 08:32:28;;;;;;;5.10;3.50;;;;;;;26.28;47.71;100799.04;102705;1294;63354;-81
2023/09/24 08:34:53;;;;;;;5.40;3.60;;;;;;;26.28;47.76;100796.00;102673;1296;63462;-81
2023/09/24 08:37:19;;;;;;;5.70;4.00;;;;;;;26.28;47.64;100793.11;102702;1292;62322;-81
2023/09/24 08:39:45;;;;;;;4.80;3.40;;;;;;;26.28;47.74;100793.83;102677;1292;64926;-81
2023/09/24 08:42:10;;;;;;;5.50;3.70;;;;;;;26.28;47.53;100793.42;102697;1294;62236;-80
2023/09/24 08:44:38;;;;;;;5.30;4.00;;;;;;;26.29;47.72;100789.08;102615;1298;62253;-81
2023/09/24 08:47:05;;;;;;;5.50;3.60;;;;;;;26.27;47.67;100788.27;102784;1293;62889;-81
2023/09/24 08:49:31;;;;;;;6.90;3.80;;;;;;;26.27;47.70;100789.34;102735;1296;62213;-81
2023/09/24 08:51:56;;;;;;;5.00;3.80;;;;;;;26.29;47.55;100795.58;102733;1294;62717;-81
2023/09/24 08:54:22;;;;;;;6.50;3.70;;;;;;;26.29;47.75;100797.55;102763;1296;62299;-81
2023/09/24 08:56:47;;;;;;;4.80;3.70;;;;;;;26.29;47.78;100801.00;102791;1294;62303;-81
2023/09/24 08:59:13;;;;;;;8.00;3.80;;;;;;;26.29;47.78;100804.77;102967;1298;62278;-79
2023/09/24 09:01:38;;;;;;;4.50;3.30;;;;;;;26.29;47.62;100805.67;102651;1295;64852;-81
2023/09/24 09:04:04;;;;;;;6.60;4.10;;;;;;;26.28;47.72;100807.86;102616;1294;62204;-81
2023/09/24 09:06:34;;;;;;;5.30;3.30;;;;;;;26.29;47.78;100810.14;102701;1294;62216;-81
2023/09/24 09:09:00;;;;;;;4.70;3.60;;;;;;;26.28;47.88;100800.84;102738;1294;62471;-81
2023/09/24 09:11:39;;;;;;;5.50;3.60;;;;;;;26.29;47.70;100806.55;102653;1293;63645;-82
2023/09/24 09:14:05;;;;;;;;;;;;;;;26.29;47.64;100808.00;102771;1293;66830;-82
2023/09/24 09:16:31;;;;;;;6.90;3.60;;;;;;;26.27;47.90;100802.37;102731;1294;62199;-81
2023/09/24 09:19:03;;;;;;;7.00;3.60;;;;;;;26.27;47.75;100803.24;102690;1294;62234;-81
2023/09/24 09:21:29;;;;;;;5.30;3.60;;;;;;;26.27;47.88;100802.16;102555;1299;63892;-81
2023/09/24 09:23:55;;;;;;;6.30;3.60;;;;;;;26.28;47.76;100800.89;102553;1294;62809;-81
2023/09/24 09:26:30;;;;;;;6.40;3.60;;;;;;;26.28;47.71;100796.84;102545;1293;62254;-82
2023/09/24 09:28:56;;;;;;;5.40;3.80;;;;;;;26.28;47.61;100793.86;102640;1294;63436;-82
2023/09/24 09:31:21;;;;;;;5.90;3.70;;;;;;;26.28;47.61;100791.33;102584;1293;63429;-81
2023/09/24 09:33:47;;;;;;;6.50;3.80;;;;;;;26.28;47.66;100789.69;102586;1293;62195;-81
2023/09/24 09:36:21;;;;;;;5.90;4.00;;;;;;;26.28;47.48;100788.05;102333;1294;62298;-82
2023/09/24 09:38:46;;;;;;;6.30;3.70;;;;;;;26.28;47.49;100785.14;102667;1294;62209;-80
2023/09/24 09:41:12;;;;;;;5.70;3.60;;;;;;;26.29;47.61;100791.44;102690;1295;62306;-81
2023/09/24 09:43:38;;;;;;;6.20;3.70;;;;;;;26.29;47.53;100793.23;102643;1294;62324;-82
2023/09/24 09:46:07;;;;;;;5.20;3.60;;;;;;;26.28;47.80;100790.02;102545;1299;62314;-81
2023/09/24 09:48:33;;;;;;;5.00;3.70;;;;;;;26.28;47.71;100792.17;102557;1294;62578;-81
2023/09/24 09:51:07;;;;;;;5.40;3.70;;;;;;;26.29;47.69;100789.64;102632;1294;63310;-81
2023/09/24 09:53:35;;;;;;;6.10;3.80;;;;;;;26.29;47.38;100786.94;102637;1294;66431;-81
2023/09/24 09:56:02;;;;;;;5.50;3.70;;;;;;;26.28;47.53;100791.63;102562;1294;62210;-82
2023/09/24 09:58:34;;;;;;;6.20;3.60;;;;;;;26.28;47.38;100796.51;102658;1294;62259;-80
2023/09/24 10:01:01;;;;;;;7.20;3.80;;;;;;;26.29;47.54;100794.69;102600;1293;63879;-81
2023/09/24 10:03:27;;;;;;;6.00;3.80;;;;;;;26.29;47.67;100793.98;102592;1300;62337;-81
2023/09/24 10:05:54;;;;;;;5.30;3.70;;;;;;;26.29;47.49;100798.10;102572;1292;62195;-81
2023/09/24 10:08:45;;;;;;;6.90;3.70;;;;;;;26.29;47.44;100799.18;102597;1295;62283;-81
2023/09/24 10:11:12;;;;;;;5.20;3.50;;;;;;;26.28;47.37;100800.14;102676;1293;63674;-81
2023/09/24 10:13:44;;;;;;;4.90;3.40;;;;;;;26.28;47.31;100798.66;102586;1295;66591;-81
2023/09/24 10:16:27;;;;;;;4.90;3.70;;;;;;;26.28;47.39;100797.25;102624;1294;63526;-82
2023/09/24 10:19:00;;;;;;;5.90;3.30;;;;;;;26.28;47.38;100796.16;102653;1296;62573;-81
2023/09/24 10:21:39;;;;;;;6.60;3.60;;;;;;;26.28;47.32;100791.67;102557;1294;65116;-81
2023/09/24 10:24:17;;;;;;;5.50;3.70;;;;;;;26.28;47.26;100793.09;102698;1294;67555;-81
2023/09/24 10:27:03;;;;;;;5.80;3.50;;;;;;;26.28;47.20;100786.42;102699;1293;62216;-81
2023/09/24 10:29:55;;;;;;;5.80;3.80;;;;;;;26.28;47.35;100782.16;102541;1300;62228;-81
2023/09/24 10:32:22;;;;;;;4.60;3.30;;;;;;;26.27;47.24;100782.87;102674;1293;63868;-81
2023/09/24 10:34:50;;;;;;;6.30;3.60;;;;;;;26.28;47.36;100780.33;102613;1294;63287;-81
2023/09/24 10:37:17;;;;;;;5.40;3.70;;;;;;;26.28;47.36;100786.63;102633;1293;62206;-81
2023/09/24 10:40:19;;;;;;;5.40;3.50;;;;;;;26.27;47.43;100789.72;102428;1295;62212;-81
2023/09/24 10:42:45;;;;;;;7.60;3.90;;;;;;;26.27;47.18;100788.67;102599;1296;64197;-81
2023/09/24 10:45:31;;;;;;;5.90;3.60;;;;;;;26.27;47.24;100784.89;102669;1293;67593;-81
2023/09/24 10:47:56;;;;;;;5.40;3.60;;;;;;;26.27;47.24;100788.29;102143;1302;62193;-81
2023/09/24 10:50:25;;;;;;;6.50;3.90;;;;;;;26.27;47.48;100784.86;102031;1303;62307;-81
2023/09/24 10:52:51;;;;;;;4.80;3.90;;;;;;;26.28;47.30;100785.38;102046;1304;63762;-80
2023/09/24 10:55:17;;;;;;;5.50;3.40;;;;;;;26.28;47.10;100788.79;102140;1300;63373;-82
2023/09/24 10:57:46;;;;;;;5.70;4.10;;;;;;;26.28;47.21;100787.33;102070;1300;62202;-81
2023/09/24 11:00:16;;;;;;;5.80;3.60;;;;;;;26.28;47.25;100784.45;102185;1300;62282;-81
2023/09/24 11:02:42;;;;;;;6.50;3.40;;;;;;;26.28;47.34;100777.61;102181;1305;63616;-81
2023/09/24 11:05:10;;;;;;;7.30;3.60;;;;;;;26.28;47.17;100777.63;102078;1300;67000;-81
2023/09/24 11:07:36;;;;;;;8.00;3.70;;;;;;;26.28;47.14;100770.36;102049;1300;62275;-81
2023/09/24 11:10:02;;;;;;;7.50;3.70;;;;;;;26.29;47.14;100768.34;102109;1300;62388;-81
2023/09/24 11:12:28;;;;;;;5.30;3.30;;;;;;;26.29;47.11;100764.58;102174;1300;62286;-79
2023/09/24 11:14:57;;;;;;;5.40;3.60;;;;;;;26.28;47.09;100758.07;102060;1300;62162;-80
2023/09/24 11:17:23;;;;;;;;;;;;;;;26.28;47.03;100763.70;102080;1305;62233;-80
2023/09/24 11:19:49;;;;;;;4.70;3.20;;;;;;;26.26;46.99;100762.06;102105;1300;63372;-82